Terminal Aerodrome Forecast
Issued by NWS

Home | Current Version | Previous Version | Text Only | Print | Product List | Glossary On
Versions: 1 2 3 4 5 6 7 8 9 10 11 12 13 14 15 16 17 18 19 20 21 22 23 24 25 26 27 28 29 30
000
FTUS43 KDMX 252324
TAFMCW
TAF
KMCW 252324Z 2600/2624 19005KT P6SM BKN035
     FM260700 33006KT 3SM BR SCT010 BKN020
     FM261000 VRB03KT 2SM BR BKN010
     FM261300 05008KT P6SM BKN030
     FM262000 28006KT P6SM SCT030 SCT100=

USA.gov is the U.S. government's official web portal to all federal, state and local government web resources and services.